Time;durP1;ratioP1;P1;durP2;ratioP2;P2;SDS_P1;SDS_P2;PMS_P1;PMS_P2;Temp;Humidity;BMP_temperature;BMP_pressure;BME280_temperature;BME280_humidity;BME280_pressure;Samples;Min_cycle;Max_cycle;Signal;HPM_P1;HPM_P2
2023/05/03 00:00:16;;;;;;;12.40;5.67;;;7.60;1.00;;;;;;5134589;27;20422;-77
2023/05/03 00:02:43;;;;;;;11.50;5.40;;;7.60;1.00;;;;;;5118788;27;20434;-72
2023/05/03 00:05:13;;;;;;;13.97;5.77;;;7.50;1.00;;;;;;5135978;27;20391;-72
2023/05/03 00:07:43;;;;;;;11.63;5.23;;;7.50;1.00;;;;;;5134114;27;20433;-72
2023/05/03 00:10:11;;;;;;;9.73;5.30;;;7.50;1.00;;;;;;5134101;27;20795;-72
2023/05/03 00:12:41;;;;;;;15.47;6.43;;;7.50;1.00;;;;;;5120293;27;20518;-72
2023/05/03 00:15:08;;;;;;;10.63;5.27;;;7.50;1.00;;;;;;5133837;27;20450;-72
2023/05/03 00:17:34;;;;;;;8.47;5.47;;;7.50;1.00;;;;;;5134130;27;20422;-72
2023/05/03 00:20:01;;;;;;;10.87;6.30;;;7.50;1.00;;;;;;5135369;27;20389;-72
2023/05/03 00:22:27;;;;;;;14.23;5.60;;;7.50;1.00;;;;;;5116643;27;20419;-72
2023/05/03 00:24:53;;;;;;;23.87;5.60;;;7.40;1.00;;;;;;5135348;27;20394;-72
2023/05/03 00:27:18;;;;;;;9.73;5.30;;;7.40;1.00;;;;;;5121542;27;20547;-72
2023/05/03 00:29:45;;;;;;;14.53;5.30;;;7.40;1.00;;;;;;5130091;27;20532;-72
2023/05/03 00:32:14;;;;;;;6.57;4.80;;;7.30;1.00;;;;;;5127519;27;20184;-78
2023/05/03 00:34:44;;;;;;;12.60;5.23;;;7.30;1.00;;;;;;5133636;27;20454;-77
2023/05/03 00:37:10;;;;;;;13.87;6.00;;;7.30;1.00;;;;;;5133301;27;20414;-78
2023/05/03 00:39:36;;;;;;;16.60;5.10;;;7.20;1.00;;;;;;5134660;27;20397;-78
2023/05/03 00:42:03;;;;;;;12.80;5.27;;;7.20;1.00;;;;;;5132580;27;21356;-78
2023/05/03 00:44:29;;;;;;;8.43;4.70;;;7.20;1.00;;;;;;5116586;27;20235;-77
2023/05/03 00:46:55;;;;;;;8.53;4.63;;;7.10;1.00;;;;;;5113727;28;20438;-72
2023/05/03 00:49:23;;;;;;;7.63;4.87;;;7.10;1.00;;;;;;5117130;27;20510;-72
2023/05/03 00:51:53;;;;;;;15.23;6.07;;;7.00;1.00;;;;;;5125242;27;20490;-72
2023/05/03 00:54:20;;;;;;;7.83;4.63;;;7.00;1.00;;;;;;5132624;27;20641;-72
2023/05/03 00:56:46;;;;;;;15.63;5.10;;;6.90;1.00;;;;;;5134599;27;20399;-72
2023/05/03 00:59:12;;;;;;;14.63;4.67;;;6.80;1.00;;;;;;5099418;27;20431;-72
2023/05/03 01:01:37;;;;;;;7.40;4.20;;;6.80;1.00;;;;;;5133571;27;20474;-72
2023/05/03 01:04:04;;;;;;;15.33;5.83;;;6.70;1.00;;;;;;5133294;27;20196;-72
2023/05/03 01:07:14;;;;;;;18.77;6.03;;;6.70;1.00;;;;;;5119814;27;20173;-72
2023/05/03 01:09:46;;;;;;;10.33;5.47;;;6.50;1.00;;;;;;5011577;28;20460;-71
2023/05/03 01:12:26;;;;;;;12.67;5.50;;;6.40;1.00;;;;;;5011765;28;20501;-71
2023/05/03 01:15:16;;;;;;;11.30;6.53;;;6.40;1.00;;;;;;5012114;28;20463;-71
2023/05/03 01:17:53;;;;;;;11.33;6.40;;;6.30;1.00;;;;;;5012779;28;20459;-72
2023/05/03 01:20:25;;;;;;;21.07;6.67;;;6.20;1.00;;;;;;5011611;28;20534;-71
2023/05/03 01:23:13;;;;;;;10.70;5.93;;;6.10;1.00;;;;;;5016977;28;21252;-72
2023/05/03 01:25:44;;;;;;;11.30;5.97;;;6.00;1.00;;;;;;5028647;28;20557;-72
2023/05/03 01:28:09;;;;;;;16.37;7.47;;;6.00;1.00;;;;;;5026881;28;20558;-72
2023/05/03 01:30:37;;;;;;;12.03;6.90;;;6.00;1.00;;;;;;5023108;28;20523;-71
2023/05/03 01:33:24;;;;;;;14.57;6.03;;;6.00;1.00;;;;;;5012319;28;20243;-71
2023/05/03 01:35:58;;;;;;;22.77;6.80;;;5.90;1.00;;;;;;5026626;28;20549;-71
2023/05/03 01:38:27;;;;;;;10.93;6.20;;;5.90;1.00;;;;;;5018260;28;20443;-72
2023/05/03 01:41:01;;;;;;;15.00;6.63;;;5.90;1.00;;;;;;5011345;28;20502;-72
2023/05/03 01:43:30;;;;;;;14.33;6.80;;;5.90;1.00;;;;;;5029974;28;20439;-71
2023/05/03 01:45:57;;;;;;;11.57;6.23;;;5.80;1.00;;;;;;5094217;28;20462;-72
2023/05/03 01:48:26;;;;;;;15.80;6.33;;;5.80;1.00;;;;;;5125397;28;20434;-77
2023/05/03 01:50:51;;;;;;;19.07;6.40;;;5.80;1.00;;;;;;5129063;27;20450;-78
2023/05/03 01:54:13;;;;;;;13.00;6.60;;;5.80;1.00;;;;;;5119157;27;20815;-77
2023/05/03 02:00:01;;;;;;;12.60;6.60;;;5.70;1.00;;;;;;5125426;27;20468;-78
2023/05/03 02:02:26;;;;;;;12.67;6.17;;;5.70;1.00;;;;;;5128189;27;20443;-77
2023/05/03 02:05:09;;;;;;;18.23;6.57;;;5.70;1.00;;;;;;5136937;27;20173;-77
2023/05/03 02:08:19;;;;;;;11.47;6.00;;;5.60;1.00;;;;;;5136833;27;20549;-77
2023/05/03 02:10:56;;;;;;;10.50;6.07;;;5.60;1.00;;;;;;5134213;27;20457;-77
2023/05/03 02:13:26;;;;;;;19.37;7.07;;;5.50;1.00;;;;;;5123484;27;20453;-77
2023/05/03 02:16:02;;;;;;;10.00;6.03;;;5.50;1.00;;;;;;5138195;27;20426;-77
2023/05/03 02:18:30;;;;;;;9.70;6.13;;;5.50;1.00;;;;;;5125678;27;20434;-72
2023/05/03 02:20:56;;;;;;;13.77;6.23;;;5.50;1.00;;;;;;5130165;27;20408;-72
2023/05/03 02:23:22;;;;;;;14.33;6.17;;;5.40;1.00;;;;;;5126592;27;20477;-72
2023/05/03 02:25:48;;;;;;;20.00;6.80;;;5.40;1.00;;;;;;5130904;27;20912;-72
2023/05/03 02:28:14;;;;;;;12.70;6.63;;;5.40;1.00;;;;;;5117980;27;20445;-72
2023/05/03 02:30:41;;;;;;;11.97;6.53;;;5.40;1.00;;;;;;5137919;27;20157;-72
2023/05/03 02:33:20;;;;;;;22.43;7.10;;;5.30;1.00;;;;;;5132371;27;20479;-77
2023/05/03 02:35:56;;;;;;;21.63;7.30;;;5.30;1.00;;;;;;5129491;27;20809;-77
2023/05/03 02:38:26;;;;;;;10.00;6.50;;;5.30;1.00;;;;;;5136165;27;20425;-77
2023/05/03 02:41:08;;;;;;;15.13;6.50;;;5.30;1.00;;;;;;5119413;27;20394;-77
2023/05/03 02:43:50;;;;;;;18.00;7.60;;;5.30;1.00;;;;;;5129643;27;20538;-77
2023/05/03 02:46:26;;;;;;;13.73;6.50;;;5.20;1.00;;;;;;5136194;27;20490;-77
2023/05/03 02:48:51;;;;;;;12.27;7.30;;;5.20;1.00;;;;;;5129801;27;20455;-71
2023/05/03 02:51:17;;;;;;;12.60;6.60;;;5.20;1.00;;;;;;5106080;27;20514;-72
2023/05/03 02:53:43;;;;;;;12.90;7.30;;;5.20;1.00;;;;;;5135229;27;20216;-72
2023/05/03 02:56:14;;;;;;;9.70;6.87;;;5.10;1.00;;;;;;5128296;27;20768;-72
2023/05/03 02:58:40;;;;;;;22.30;7.00;;;5.10;1.00;;;;;;5129900;27;20181;-72
2023/05/03 03:01:06;;;;;;;11.90;7.37;;;5.10;1.00;;;;;;5135155;27;20908;-72
2023/05/03 03:03:55;;;;;;;13.43;6.87;;;5.10;1.00;;;;;;5136074;27;20215;-77
2023/05/03 03:06:21;;;;;;;17.67;6.50;;;5.10;1.00;;;;;;5133945;27;20423;-77
2023/05/03 03:08:47;;;;;;;11.60;6.87;;;5.10;1.00;;;;;;5135328;27;20487;-77
2023/05/03 03:11:32;;;;;;;10.60;7.37;;;5.10;1.00;;;;;;5118695;27;20451;-78
2023/05/03 03:14:08;;;;;;;17.70;6.97;;;5.10;1.00;;;;;;5135515;27;20213;-77
2023/05/03 03:16:38;;;;;;;15.20;6.47;;;5.10;1.00;;;;;;5116903;28;20441;-79
2023/05/03 03:19:03;;;;;;;17.27;6.80;;;5.20;1.00;;;;;;5116820;27;20910;-72
2023/05/03 03:21:33;;;;;;;12.93;6.80;;;5.20;1.00;;;;;;5128922;27;20509;-82
2023/05/03 03:24:44;;;;;;;13.30;6.80;;;5.20;1.00;;;;;;5131599;27;20168;-83
2023/05/03 03:31:02;;;;;;;16.40;7.10;;;5.10;1.00;;;;;;5126941;27;20450;-82
2023/05/03 03:33:56;;;;;;;16.33;6.80;;;5.10;1.00;;;;;;5117637;27;20423;-83
2023/05/03 03:36:21;;;;;;;13.73;6.53;;;5.10;1.00;;;;;;5115972;27;20441;-82
2023/05/03 03:39:12;;;;;;;10.90;5.80;;;5.10;1.00;;;;;;5116854;27;20423;-82
2023/05/03 03:45:03;;;;;;;11.07;6.00;;;5.10;1.00;;;;;;5119353;27;20434;-82
2023/05/03 03:48:01;;;;;;;15.27;6.40;;;5.00;1.00;;;;;;5100516;27;20456;-84
2023/05/03 03:50:28;;;;;;;12.97;6.70;;;5.00;1.00;;;;;;5113501;27;20534;-84
2023/05/03 03:56:26;;;;;;;13.60;6.77;;;5.00;1.00;;;;;;5136125;27;20585;-85
2023/05/03 04:03:01;;;;;;;13.60;7.03;;;4.90;1.00;;;;;;5129930;27;20455;-84
2023/05/03 04:05:32;;;;;;;13.53;6.40;;;4.90;1.00;;;;;;5103223;27;20422;-83
2023/05/03 04:11:20;;;;;;;15.63;6.70;;;4.80;1.00;;;;;;5136079;27;20362;-82
2023/05/03 04:17:14;;;;;;;10.27;6.70;;;4.80;1.00;;;;;;5134363;27;20835;-82
2023/05/03 04:23:20;;;;;;;13.10;6.97;;;4.80;1.00;;;;;;5115565;27;20493;-85
2023/05/03 04:32:35;;;;;;;17.60;8.10;;;4.80;1.00;;;;;;5115129;28;20459;-88
2023/05/03 04:35:32;;;;;;;19.43;7.83;;;4.90;1.00;;;;;;5108301;27;20992;-82
2023/05/03 04:38:38;;;;;;;20.57;7.50;;;4.90;1.00;;;;;;5114951;28;20392;-82
2023/05/03 04:41:14;;;;;;;15.03;7.60;;;5.00;1.00;;;;;;5121918;27;20882;-83
2023/05/03 04:47:08;;;;;;;15.37;7.40;;;5.30;1.00;;;;;;5114229;28;20418;-83
2023/05/03 04:49:34;;;;;;;16.73;7.60;;;5.40;1.00;;;;;;5096659;28;20411;-83
2023/05/03 04:55:22;;;;;;;13.03;6.43;;;5.60;1.00;;;;;;5126754;27;20462;-83
2023/05/03 04:58:14;;;;;;;12.20;6.50;;;5.70;1.00;;;;;;5114262;27;20426;-83
2023/05/03 05:01:31;;;;;;;11.43;6.57;;;5.80;1.00;;;;;;5102742;27;20426;-83
2023/05/03 05:04:37;;;;;;;10.07;6.30;;;5.90;1.00;;;;;;5134971;27;20479;-84
2023/05/03 05:07:08;;;;;;;18.60;7.13;;;6.00;1.00;;;;;;5125138;27;20419;-85
2023/05/03 05:12:57;;;;;;;14.77;6.17;;;6.10;1.00;;;;;;5114220;28;20430;-85
2023/05/03 05:15:38;;;;;;;10.23;5.27;;;6.20;1.00;;;;;;5114156;28;20443;-85
2023/05/03 05:18:55;;;;;;;12.57;6.30;;;6.30;1.00;;;;;;5096066;28;20438;-85
2023/05/03 05:21:32;;;;;;;16.13;6.80;;;6.40;1.00;;;;;;5114377;28;20398;-83
2023/05/03 05:24:08;;;;;;;8.30;5.40;;;6.50;1.00;;;;;;5112644;28;20433;-84
2023/05/03 05:26:38;;;;;;;10.57;5.10;;;6.60;1.00;;;;;;5112586;27;20785;-83
2023/05/03 05:29:08;;;;;;;8.87;5.60;;;6.70;1.00;;;;;;5113567;27;20427;-83
2023/05/03 05:32:04;;;;;;;11.63;5.90;;;6.80;1.00;;;;;;5096202;28;20518;-83
2023/05/03 05:34:54;;;;;;;10.33;5.50;;;6.90;1.00;;;;;;5127341;27;20457;-83
2023/05/03 05:37:21;;;;;;;8.17;5.47;;;7.00;1.00;;;;;;5107237;28;20957;-83
2023/05/03 05:43:20;;;;;;;13.33;5.83;;;7.30;1.00;;;;;;5132904;28;20406;-83
2023/05/03 05:49:07;;;;;;;16.40;4.80;;;7.40;1.00;;;;;;5121164;28;20386;-85
2023/05/03 05:51:44;;;;;;;11.43;4.90;;;7.60;1.00;;;;;;5113721;28;20439;-85
2023/05/03 05:57:32;;;;;;;9.50;4.80;;;7.80;1.00;;;;;;5113949;28;20418;-85
2023/05/03 06:03:15;;;;;;;12.27;5.20;;;7.90;1.00;;;;;;5113690;28;20177;-85
2023/05/03 06:12:32;;;;;;;10.50;4.50;;;8.20;1.00;;;;;;5123279;28;20395;-87
2023/05/03 06:18:20;;;;;;;11.27;5.27;;;8.40;1.00;;;;;;5113804;28;20495;-86
2023/05/03 06:24:07;;;;;;;12.70;5.30;;;8.50;1.00;;;;;;5133128;28;20241;-85
2023/05/03 06:29:55;;;;;;;7.60;4.90;;;8.70;1.00;;;;;;5120541;28;20207;-85
2023/05/03 06:32:26;;;;;;;9.97;5.60;;;8.90;1.00;;;;;;5113591;28;20412;-85
2023/05/03 06:35:26;;;;;;;8.37;5.40;;;8.90;1.00;;;;;;5132772;28;20233;-85
2023/05/03 06:38:10;;;;;;;7.00;4.80;;;9.10;1.00;;;;;;5121643;27;20430;-85
2023/05/03 06:40:40;;;;;;;9.70;5.07;;;9.20;1.00;;;;;;5102708;28;20797;-85
2023/05/03 06:43:06;;;;;;;7.40;4.97;;;9.30;1.00;;;;;;5104895;27;20419;-85
2023/05/03 06:45:44;;;;;;;6.53;4.93;;;10.60;1.00;;;;;;5122303;27;20522;-84
2023/05/03 06:48:26;;;;;;;16.13;5.17;;;9.50;1.00;;;;;;5101631;27;20452;-84
2023/05/03 06:51:26;;;;;;;10.83;5.20;;;9.60;1.00;;;;;;5118323;27;20453;-85
2023/05/03 06:54:00;;;;;;;9.07;5.07;;;9.70;1.00;;;;;;5124317;27;20429;-85
2023/05/03 06:56:27;;;;;;;9.07;4.73;;;9.70;1.00;;;;;;5106912;27;20944;-85
2023/05/03 06:58:56;;;;;;;12.90;4.63;;;9.80;1.00;;;;;;5099769;28;20993;-82
2023/05/03 07:01:27;;;;;;;10.57;4.97;;;9.90;1.00;;;;;;5102960;27;20429;-82
2023/05/03 07:03:56;;;;;;;16.20;5.50;;;10.00;1.00;;;;;;5101006;27;20475;-82
2023/05/03 07:06:50;;;;;;;8.07;5.50;;;10.10;1.00;;;;;;5128150;27;20393;-87
2023/05/03 07:09:26;;;;;;;10.30;6.00;;;10.30;1.00;;;;;;5118892;27;20413;-86
2023/05/03 07:11:52;;;;;;;8.77;5.27;;;10.30;1.00;;;;;;5134338;27;20393;-86
2023/05/03 07:14:20;;;;;;;14.33;5.50;;;10.40;1.00;;;;;;5124070;27;20947;-87
2023/05/03 07:16:50;;;;;;;14.40;5.77;;;10.60;1.00;;;;;;5111301;28;20693;-86
2023/05/03 07:19:32;;;;;;;8.93;5.50;;;10.70;1.00;;;;;;5117432;27;20931;-87
2023/05/03 07:22:32;;;;;;;13.20;5.30;;;10.70;1.00;;;;;;5104791;27;20414;-86
2023/05/03 07:28:19;;;;;;;8.63;5.03;;;11.00;1.00;;;;;;5116890;28;20882;-84
2023/05/03 07:30:57;;;;;;;6.43;4.93;;;11.00;1.00;;;;;;5106997;27;20393;-85
2023/05/03 07:33:26;;;;;;;9.60;5.20;;;11.10;1.00;;;;;;5118575;27;20173;-85
2023/05/03 07:36:11;;;;;;;8.07;5.43;;;11.20;1.00;;;;;;5124760;27;21062;-84
2023/05/03 07:38:45;;;;;;;12.27;5.10;;;11.30;1.00;;;;;;5122531;27;20911;-85
2023/05/03 07:41:20;;;;;;;15.47;5.50;;;11.30;1.00;;;;;;5116298;28;20472;-85
2023/05/03 07:43:56;;;;;;;7.73;4.73;;;11.40;1.00;;;;;;5125608;27;20385;-85
2023/05/03 07:49:43;;;;;;;17.63;5.20;;;11.60;1.00;;;;;;5116785;27;20420;-85
2023/05/03 07:52:26;;;;;;;7.50;5.40;;;11.70;1.00;;;;;;5116140;27;20966;-86
2023/05/03 07:55:37;;;;;;;6.47;4.90;;;11.80;1.00;;;;;;5122801;27;20199;-83
2023/05/03 08:01:25;;;;;;;11.90;5.23;;;12.10;1.00;;;;;;5115803;28;20369;-83
2023/05/03 08:04:20;;;;;;;13.20;5.10;;;12.20;1.00;;;;;;5111150;27;20480;-83
2023/05/03 08:07:00;;;;;;;11.23;5.03;;;12.30;1.00;;;;;;5115574;27;20638;-83
2023/05/03 08:12:53;;;;;;;11.03;5.00;;;12.60;1.00;;;;;;5116016;27;20377;-86
2023/05/03 08:16:02;;;;;;;10.63;4.70;;;12.80;1.00;;;;;;5125883;27;20421;-85
2023/05/03 08:25:11;;;;;;;10.10;5.10;;;13.10;1.00;;;;;;5115089;27;20448;-83
2023/05/03 08:27:37;;;;;;;12.53;4.90;;;13.10;1.00;;;;;;5099153;27;20422;-83
2023/05/03 08:33:25;;;;;;;9.60;4.90;;;13.30;1.00;;;;;;5123716;27;20417;-83
2023/05/03 08:35:51;;;;;;;9.93;6.10;;;13.40;1.00;;;;;;5096290;28;20422;-83
2023/05/03 08:38:27;;;;;;;6.87;4.50;;;13.50;1.00;;;;;;5104991;28;20166;-83
2023/05/03 08:44:28;;;;;;;7.23;4.30;;;13.70;1.00;;;;;;5132348;27;20405;-83
2023/05/03 08:46:58;;;;;;;7.77;5.40;;;14.00;1.00;;;;;;5108145;28;20423;-84
2023/05/03 08:49:33;;;;;;;10.33;5.23;;;14.00;1.00;;;;;;5099513;27;20410;-84
2023/05/03 08:52:01;;;;;;;6.97;4.90;;;14.00;1.00;;;;;;5115634;27;20834;-84
2023/05/03 08:54:26;;;;;;;6.30;4.63;;;14.10;1.00;;;;;;5126366;27;20424;-86
2023/05/03 08:57:15;;;;;;;10.20;5.20;;;14.20;1.00;;;;;;5107212;27;20437;-86
2023/05/03 08:59:53;;;;;;;8.40;5.60;;;14.40;1.00;;;;;;5115294;28;20173;-85
2023/05/03 09:02:56;;;;;;;7.10;4.67;;;14.30;1.00;;;;;;5097464;27;20797;-85
2023/05/03 09:08:51;;;;;;;8.27;4.93;;;14.20;1.00;;;;;;5115085;28;20465;-86
2023/05/03 09:11:21;;;;;;;7.83;5.17;;;14.50;1.00;;;;;;5096757;28;20466;-86
2023/05/03 09:23:57;;;;;;;7.30;4.60;;;15.00;1.00;;;;;;5114944;28;20885;-85
2023/05/03 09:26:31;;;;;;;10.87;5.70;;;15.00;1.00;;;;;;5096611;28;20436;-85
2023/05/03 09:29:03;;;;;;;6.13;5.00;;;15.20;1.00;;;;;;5114890;28;20384;-84
2023/05/03 09:31:32;;;;;;;8.20;5.07;;;15.10;1.00;;;;;;5096464;28;20431;-84
2023/05/03 09:34:20;;;;;;;8.80;5.43;;;15.10;1.00;;;;;;5124988;27;20514;-81
2023/05/03 09:36:46;;;;;;;9.37;4.97;;;15.10;1.00;;;;;;5116116;28;20484;-78
2023/05/03 09:39:16;;;;;;;5.53;4.70;;;15.10;1.00;;;;;;5126853;28;20885;-73
2023/05/03 09:41:42;;;;;;;13.33;5.10;;;15.10;1.00;;;;;;5094204;28;20783;-74
2023/05/03 09:44:08;;;;;;;14.80;6.27;;;15.10;1.00;;;;;;5113662;28;20388;-74
2023/05/03 09:46:33;;;;;;;7.50;4.97;;;15.30;1.00;;;;;;5113857;28;20163;-73
2023/05/03 09:49:00;;;;;;;10.30;4.80;;;15.20;1.00;;;;;;5117783;28;20664;-73
2023/05/03 09:51:26;;;;;;;6.77;5.20;;;15.30;1.00;;;;;;5112991;28;20178;-73
2023/05/03 09:53:55;;;;;;;11.80;5.70;;;15.40;1.00;;;;;;5113427;28;20426;-77
2023/05/03 09:56:25;;;;;;;13.43;4.77;;;15.60;1.00;;;;;;5113381;28;20439;-78
2023/05/03 09:59:14;;;;;;;8.50;5.10;;;15.60;1.00;;;;;;5113574;28;20866;-78
2023/05/03 10:01:44;;;;;;;9.27;5.20;;;15.70;1.00;;;;;;5095580;28;20898;-78
2023/05/03 10:04:18;;;;;;;6.00;4.73;;;15.70;1.00;;;;;;5113779;28;20444;-78
2023/05/03 10:07:12;;;;;;;13.00;5.60;;;15.70;1.00;;;;;;5114032;28;20377;-78
2023/05/03 10:09:46;;;;;;;11.37;4.97;;;15.80;1.00;;;;;;5113958;28;20805;-73
2023/05/03 10:12:15;;;;;;;7.43;4.90;;;16.00;1.00;;;;;;5116291;28;20899;-73
2023/05/03 10:14:44;;;;;;;8.93;5.10;;;16.10;1.00;;;;;;5134885;27;20451;-73
2023/05/03 10:17:16;;;;;;;7.10;4.90;;;16.00;1.00;;;;;;5138104;27;20407;-73
2023/05/03 10:20:19;;;;;;;10.53;5.23;;;16.30;1.00;;;;;;5119574;27;20408;-73
2023/05/03 10:26:10;;;;;;;9.93;4.77;;;16.40;1.00;;;;;;5118002;28;20336;-84
2023/05/03 10:28:56;;;;;;;7.80;4.70;;;16.50;1.00;;;;;;5117607;28;20778;-84
2023/05/03 10:31:49;;;;;;;6.00;4.30;;;16.60;1.00;;;;;;5099330;28;20420;-85
2023/05/03 10:34:38;;;;;;;7.50;5.00;;;16.70;1.00;;;;;;5114276;28;20433;-84
2023/05/03 10:37:14;;;;;;;9.17;3.70;;;16.80;1.00;;;;;;5117505;27;20425;-84
2023/05/03 10:40:26;;;;;;;8.03;4.43;;;16.80;1.00;;;;;;5125987;27;20420;-87
2023/05/03 10:43:40;;;;;;;13.10;5.00;;;17.00;1.00;;;;;;5105955;27;20439;-87
2023/05/03 10:46:50;;;;;;;6.20;3.77;;;17.20;1.00;;;;;;5055193;28;20428;-87
2023/05/03 10:49:30;;;;;;;11.10;4.40;;;17.20;1.00;;;;;;5035201;28;20913;-87
2023/05/03 10:51:56;;;;;;;5.30;4.03;;;17.30;1.00;;;;;;5019056;28;20433;-87
2023/05/03 10:54:26;;;;;;;6.47;3.97;;;17.10;1.00;;;;;;5040931;28;20433;-84
2023/05/03 11:00:22;;;;;;;9.13;4.40;;;17.20;1.00;;;;;;5054521;28;20395;-84
2023/05/03 11:03:14;;;;;;;13.23;4.60;;;17.30;1.00;;;;;;5054541;28;20409;-84
2023/05/03 11:09:04;;;;;;;6.67;4.07;;;17.50;1.00;;;;;;5054063;28;20965;-84
2023/05/03 11:14:56;;;;;;;6.30;3.93;;;17.40;1.00;;;;;;5053972;28;20461;-84
2023/05/03 11:17:22;;;;;;;10.83;5.03;;;17.60;1.00;;;;;;5049658;28;20465;-84
2023/05/03 11:19:49;;;;;;;8.10;4.13;;;17.70;1.00;;;;;;5039312;28;20465;-84
2023/05/03 11:22:14;;;;;;;8.97;4.90;;;17.70;1.00;;;;;;5066087;28;20415;-84
2023/05/03 11:24:40;;;;;;;8.20;5.13;;;17.80;1.00;;;;;;5116841;28;20414;-85
2023/05/03 11:27:12;;;;;;;4.70;3.70;;;17.70;1.00;;;;;;5102291;28;20756;-85
2023/05/03 11:29:38;;;;;;;13.43;3.97;;;17.80;1.00;;;;;;5097898;28;20187;-85
2023/05/03 11:32:15;;;;;;;10.77;5.10;;;17.80;1.00;;;;;;5116650;28;20422;-88
2023/05/03 11:35:04;;;;;;;8.50;4.33;;;17.90;1.00;;;;;;5098833;28;20200;-88
2023/05/03 11:37:50;;;;;;;6.73;4.40;;;17.90;1.00;;;;;;5105031;28;20433;-87
2023/05/03 11:40:16;;;;;;;8.77;4.17;;;18.00;1.00;;;;;;5115803;28;20400;-88
2023/05/03 11:42:55;;;;;;;9.17;5.03;;;18.10;1.00;;;;;;5111307;27;20437;-88
2023/05/03 11:45:44;;;;;;;5.17;4.03;;;18.20;1.00;;;;;;5119216;27;20431;-87
2023/05/03 11:48:11;;;;;;;17.40;4.00;;;18.20;1.00;;;;;;5099856;28;20434;-88
2023/05/03 11:50:46;;;;;;;8.60;4.80;;;18.30;1.00;;;;;;5131169;27;20556;-88
2023/05/03 11:53:16;;;;;;;15.30;4.60;;;18.30;1.00;;;;;;5120165;27;20522;-86
2023/05/03 11:55:46;;;;;;;9.67;4.47;;;18.40;1.00;;;;;;5098003;28;20493;-85
2023/05/03 11:58:23;;;;;;;7.43;4.20;;;18.50;1.00;;;;;;5098429;28;20426;-85
2023/05/03 12:00:56;;;;;;;8.07;4.63;;;18.50;1.00;;;;;;5116241;28;20395;-85
2023/05/03 12:03:24;;;;;;;11.73;4.47;;;18.70;1.00;;;;;;5127479;27;20517;-86
2023/05/03 12:09:32;;;;;;;7.77;4.40;;;18.60;1.00;;;;;;5129109;27;20963;-85
2023/05/03 12:12:32;;;;;;;7.77;4.40;;;18.30;1.00;;;;;;5137060;27;20421;-85
2023/05/03 12:15:04;;;;;;;5.97;3.70;;;18.50;1.00;;;;;;5136703;27;20571;-86
2023/05/03 12:18:08;;;;;;;6.03;3.57;;;18.60;1.00;;;;;;5112015;27;20457;-87
2023/05/03 12:21:14;;;;;;;4.50;3.47;;;18.80;1.00;;;;;;5127038;27;20422;-84
2023/05/03 12:23:45;;;;;;;5.90;3.97;;;18.90;1.00;;;;;;5097796;28;20396;-87
2023/05/03 12:26:32;;;;;;;7.40;4.27;;;19.00;1.00;;;;;;5116258;28;20909;-83
2023/05/03 12:29:08;;;;;;;5.77;3.50;;;19.10;1.00;;;;;;5096763;28;20409;-82
2023/05/03 12:32:32;;;;;;;7.93;3.60;;;19.10;1.00;;;;;;5110658;27;20914;-87
2023/05/03 12:35:48;;;;;;;12.13;4.47;;;19.20;1.00;;;;;;5132778;27;20511;-83
2023/05/03 12:38:15;;;;;;;5.40;3.20;;;19.40;1.00;;;;;;5123413;27;20424;-84
2023/05/03 12:41:32;;;;;;;4.73;3.50;;;19.60;1.00;;;;;;5115310;28;20774;-85
2023/05/03 12:44:32;;;;;;;6.80;3.00;;;19.70;1.00;;;;;;5122795;27;20396;-83
2023/05/03 12:46:58;;;;;;;5.00;3.60;;;19.90;1.00;;;;;;5114613;28;20420;-83
2023/05/03 12:49:29;;;;;;;14.27;3.83;;;20.00;1.00;;;;;;5096791;28;20428;-84
2023/05/03 12:51:59;;;;;;;5.67;3.33;;;20.00;1.00;;;;;;5098337;28;20269;-82
2023/05/03 13:01:08;;;;;;;5.60;4.13;;;20.00;1.00;;;;;;5120381;27;20454;-87
2023/05/03 13:03:45;;;;;;;4.77;3.57;;;20.00;1.00;;;;;;5128185;27;20888;-87
2023/05/03 13:06:14;;;;;;;5.70;3.20;;;19.80;1.00;;;;;;5097278;28;20159;-87
2023/05/03 13:12:02;;;;;;;4.80;3.23;;;20.10;1.00;;;;;;5119236;27;20412;-86
2023/05/03 13:14:33;;;;;;;7.57;4.20;;;20.20;1.00;;;;;;5114237;28;20405;-82
2023/05/03 13:17:32;;;;;;;7.27;3.23;;;20.30;1.00;;;;;;5096748;28;20186;-83
2023/05/03 13:19:58;;;;;;;6.83;3.40;;;20.30;1.00;;;;;;5134967;27;20940;-83
2023/05/03 13:22:26;;;;;;;6.53;3.80;;;20.40;1.00;;;;;;5097753;28;20412;-82
2023/05/03 13:28:32;;;;;;;5.33;3.40;;;20.50;1.00;;;;;;5130156;27;20531;-83
2023/05/03 13:38:15;;;;;;;12.43;3.87;;;20.70;1.00;;;;;;5113667;28;20438;-88
2023/05/03 13:44:03;;;;;;;5.30;3.40;;;20.80;1.00;;;;;;5116744;28;20401;-86
2023/05/03 13:46:45;;;;;;;5.43;3.30;;;20.90;1.00;;;;;;5098441;28;20451;-86
2023/05/03 13:49:29;;;;;;;5.87;2.80;;;21.00;1.00;;;;;;5100939;28;20541;-87
2023/05/03 13:51:55;;;;;;;3.83;2.67;;;21.10;1.00;;;;;;5101065;28;20418;-88
2023/05/03 13:54:20;;;;;;;5.10;3.20;;;21.10;1.00;;;;;;5113078;27;20438;-87
2023/05/03 14:00:09;;;;;;;2.87;2.57;;;21.00;1.00;;;;;;5118884;28;20164;-87
2023/05/03 14:05:56;;;;;;;2.63;2.40;;;21.20;1.00;;;;;;5121931;27;20915;-87
2023/05/03 14:11:44;;;;;;;3.07;2.70;;;21.50;1.00;;;;;;5118439;28;20196;-83
2023/05/03 14:14:50;;;;;;;4.90;2.93;;;21.60;1.00;;;;;;5118080;28;20389;-82
2023/05/03 14:17:47;;;;;;;5.20;3.10;;;21.70;1.00;;;;;;5117841;27;20439;-81
2023/05/03 14:20:26;;;;;;;3.70;2.43;;;21.70;1.00;;;;;;5117817;28;20380;-81
2023/05/03 14:22:52;;;;;;;5.83;2.50;;;21.80;1.00;;;;;;5119883;27;20398;-83
2023/05/03 14:25:38;;;;;;;6.47;2.47;;;22.00;1.00;;;;;;5114214;28;20428;-82
2023/05/03 14:28:45;;;;;;;6.10;2.80;;;22.10;1.00;;;;;;5100072;28;20218;-88
2023/05/03 14:31:38;;;;;;;5.33;2.80;;;22.20;1.00;;;;;;5100393;28;20986;-88
2023/05/03 14:40:48;;;;;;;3.53;2.37;;;22.40;1.00;;;;;;5117751;27;20401;-91
2023/05/03 14:46:36;;;;;;;3.30;2.70;;;22.60;1.00;;;;;;5126538;27;22384;-89
2023/05/03 14:49:21;;;;;;;2.50;2.30;;;22.60;1.00;;;;;;5120091;27;20417;-90
2023/05/03 14:52:15;;;;;;;8.73;2.67;;;22.60;1.00;;;;;;5119723;27;20873;-87
2023/05/03 14:55:32;;;;;;;3.10;2.37;;;22.60;1.00;;;;;;5135450;27;20845;-85
2023/05/03 15:01:21;;;;;;;2.90;2.67;;;22.90;1.00;;;;;;5116766;27;20410;-85
2023/05/03 15:04:14;;;;;;;9.20;2.47;;;23.00;1.00;;;;;;5135873;27;20422;-85
2023/05/03 15:17:44;;;;;;;3.90;2.30;;;22.90;1.00;;;;;;5121412;27;20422;-85
2023/05/03 15:20:27;;;;;;;3.90;2.63;;;24.50;1.00;;;;;;5116772;27;20428;-86
2023/05/03 15:26:15;;;;;;;4.50;2.50;;;28.40;1.00;;;;;;5128989;27;20467;-87
2023/05/03 15:28:51;;;;;;;5.43;2.10;;;30.20;1.00;;;;;;5119074;27;20917;-88
2023/05/03 15:31:26;;;;;;;2.50;2.10;;;31.10;1.00;;;;;;5137484;27;20421;-87
2023/05/03 15:33:52;;;;;;;3.93;1.80;;;31.50;1.00;;;;;;5128451;27;20888;-71
2023/05/03 15:36:18;;;;;;;6.60;2.20;;;31.80;1.00;;;;;;5118816;27;20483;-72
2023/05/03 15:38:43;;;;;;;3.60;2.30;;;33.10;1.00;;;;;;5127842;27;20182;-73
2023/05/03 15:41:09;;;;;;;5.70;1.80;;;34.20;1.00;;;;;;5124459;27;20536;-72
2023/05/03 15:43:35;;;;;;;2.20;1.73;;;35.00;1.00;;;;;;5121472;27;20173;-71
2023/05/03 15:46:03;;;;;;;1.90;1.70;;;35.80;1.00;;;;;;5127455;27;20189;-79
2023/05/03 15:48:39;;;;;;;1.80;1.70;;;36.30;1.00;;;;;;5127650;27;20419;-79
2023/05/03 15:51:09;;;;;;;2.13;1.60;;;36.80;1.00;;;;;;5097477;28;20439;-78
2023/05/03 15:53:34;;;;;;;5.73;1.57;;;37.30;1.00;;;;;;5123961;27;20436;-79
2023/05/03 15:56:10;;;;;;;1.30;1.20;;;37.80;1.00;;;;;;5102350;27;20508;-79
2023/05/03 15:58:56;;;;;;;2.00;1.43;;;37.70;1.00;;;;;;5136884;27;20505;-79
2023/05/03 16:01:39;;;;;;;1.80;1.70;;;37.70;1.00;;;;;;5136860;27;20387;-76
2023/05/03 16:04:32;;;;;;;2.87;1.57;;;37.80;1.00;;;;;;5134258;27;20426;-76
2023/05/03 16:06:58;;;;;;;3.37;1.30;;;37.80;1.00;;;;;;5136204;27;20478;-76
2023/05/03 16:09:33;;;;;;;1.47;1.30;;;38.30;1.00;;;;;;5116915;27;20532;-76
2023/05/03 16:12:03;;;;;;;3.93;1.67;;;38.90;1.00;;;;;;5136393;27;20205;-76
2023/05/03 16:14:33;;;;;;;4.07;1.47;;;39.60;1.00;;;;;;5136941;27;20387;-76
2023/05/03 16:17:00;;;;;;;2.70;1.50;;;40.40;1.00;;;;;;5116834;27;20456;-76
2023/05/03 16:19:25;;;;;;;2.00;1.30;;;39.90;1.00;;;;;;5136405;27;20395;-76
2023/05/03 16:22:03;;;;;;;2.47;1.50;;;39.90;1.00;;;;;;5135420;27;20955;-76
2023/05/03 16:24:31;;;;;;;4.60;1.30;;;40.00;1.00;;;;;;5136132;27;20249;-76
2023/05/03 16:26:57;;;;;;;2.37;1.70;;;40.10;1.00;;;;;;5136155;27;20392;-76
2023/05/03 16:29:23;;;;;;;1.50;1.40;;;39.80;1.00;;;;;;5136662;27;20406;-76
2023/05/03 16:31:57;;;;;;;2.50;1.57;;;39.90;1.00;;;;;;5135639;27;20391;-76
2023/05/03 16:34:23;;;;;;;1.63;1.20;;;40.10;1.00;;;;;;5116097;27;20176;-76
2023/05/03 16:36:51;;;;;;;4.30;1.30;;;40.40;1.00;;;;;;5115429;28;20447;-76
2023/05/03 16:39:32;;;;;;;5.03;1.37;;;40.30;1.00;;;;;;5114866;27;20245;-76
2023/05/03 16:42:15;;;;;;;4.00;1.63;;;39.70;1.00;;;;;;5115031;28;20399;-76
2023/05/03 16:44:40;;;;;;;1.80;1.30;;;38.90;1.00;;;;;;5115137;28;20749;-72
2023/05/03 16:47:06;;;;;;;1.83;1.50;;;38.50;1.00;;;;;;5114702;28;20392;-72
2023/05/03 16:49:33;;;;;;;3.03;1.50;;;38.10;1.00;;;;;;5115639;27;20154;-72
2023/05/03 16:51:59;;;;;;;4.77;1.63;;;37.70;1.00;;;;;;5133247;27;20181;-72
2023/05/03 16:54:25;;;;;;;4.13;1.50;;;37.50;1.00;;;;;;5135191;27;20391;-72
2023/05/03 16:56:52;;;;;;;3.70;1.80;;;37.80;1.00;;;;;;5105804;28;20782;-72